createdAt,value
2023-01-31T00:01:14.067Z,68.20
2023-01-31T00:03:43.355Z,68.30
2023-01-31T00:06:13.536Z,68.20
2023-01-31T00:08:41.009Z,68.10
2023-01-31T00:11:08.339Z,68.10
2023-01-31T00:13:37.383Z,68.40
2023-01-31T00:16:05.522Z,68.60
2023-01-31T00:18:33.022Z,68.70
2023-01-31T00:21:06.135Z,68.60
2023-01-31T00:23:33.349Z,69.00
2023-01-31T00:26:08.599Z,69.10
2023-01-31T00:28:37.822Z,69.30
2023-01-31T00:31:05.431Z,69.40
2023-01-31T00:33:33.523Z,69.30
2023-01-31T00:36:03.678Z,69.30
2023-01-31T00:38:30.993Z,69.30
2023-01-31T00:40:58.547Z,69.10
2023-01-31T00:43:25.853Z,69.10
2023-01-31T00:45:54.411Z,69.20
2023-01-31T00:48:23.677Z,69.20
2023-01-31T00:50:51.120Z,69.10
2023-01-31T00:53:23.289Z,69.20
2023-01-31T00:55:50.814Z,69.30
2023-01-31T00:58:18.420Z,69.40
2023-01-31T01:00:46.002Z,69.40
2023-01-31T01:03:14.932Z,69.20
2023-01-31T01:05:42.149Z,69.40
2023-01-31T01:08:10.059Z,69.50
2023-01-31T01:10:37.885Z,69.30
2023-01-31T01:13:08.251Z,69.20
2023-01-31T01:15:38.526Z,69.30
2023-01-31T01:18:05.823Z,69.20
2023-01-31T01:20:34.819Z,69.20
2023-01-31T01:23:02.308Z,69.10
2023-01-31T01:25:29.650Z,69.00
2023-01-31T01:28:00.327Z,68.80
2023-01-31T01:30:27.559Z,68.70
2023-01-31T01:32:55.197Z,68.70
2023-01-31T01:35:22.428Z,68.30
2023-01-31T01:37:51.149Z,68.30
2023-01-31T01:40:18.490Z,68.50
2023-01-31T01:42:45.674Z,68.40
2023-01-31T01:45:16.280Z,68.50
2023-01-31T01:47:47.851Z,68.20
2023-01-31T01:50:20.059Z,68.20
2023-01-31T01:52:52.155Z,68.10
2023-01-31T01:55:24.737Z,68.20
2023-01-31T01:57:56.444Z,68.00
2023-01-31T02:00:26.427Z,68.00
2023-01-31T02:02:56.973Z,68.20
2023-01-31T02:05:29.628Z,67.90
2023-01-31T02:07:59.519Z,68.10
2023-01-31T02:10:30.658Z,68.00
2023-01-31T02:12:58.811Z,67.90
2023-01-31T02:15:29.618Z,67.90
2023-01-31T02:17:57.623Z,68.20
2023-01-31T02:20:49.623Z,68.20
2023-01-31T02:23:47.175Z,68.40
2023-01-31T02:26:49.245Z,68.50
2023-01-31T02:29:34.201Z,68.40
2023-01-31T02:32:34.060Z,68.70
2023-01-31T02:35:09.866Z,68.20
2023-01-31T02:37:47.112Z,68.30
2023-01-31T02:40:22.808Z,68.20
2023-01-31T02:42:59.291Z,68.20
2023-01-31T02:45:35.048Z,68.20
2023-01-31T02:48:16.335Z,68.20
2023-01-31T02:50:57.644Z,68.10
2023-01-31T02:53:29.600Z,68.40
2023-01-31T02:56:20.376Z,68.00
2023-01-31T02:58:54.889Z,67.80
2023-01-31T03:01:27.820Z,68.00
2023-01-31T03:03:59.671Z,67.90
2023-01-31T03:07:02.546Z,68.30
2023-01-31T03:09:39.923Z,68.40
2023-01-31T03:12:36.389Z,68.20
2023-01-31T03:15:48.140Z,68.30
2023-01-31T03:18:19.887Z,68.40
2023-01-31T03:20:56.451Z,68.60
2023-01-31T03:23:31.117Z,68.80
2023-01-31T03:26:00.240Z,68.90
2023-01-31T03:28:31.458Z,69.30
2023-01-31T03:31:04.937Z,69.50
2023-01-31T03:33:36.195Z,69.30
2023-01-31T03:36:14.524Z,69.60
2023-01-31T03:38:50.731Z,69.90
2023-01-31T03:41:25.381Z,69.90
2023-01-31T03:44:01.569Z,70.20
2023-01-31T03:46:34.636Z,70.10
2023-01-31T03:49:08.855Z,70.50
2023-01-31T03:51:41.626Z,70.60
2023-01-31T03:54:13.507Z,70.90
2023-01-31T03:56:44.326Z,71.30
2023-01-31T03:59:15.365Z,71.20
2023-01-31T04:01:51.998Z,71.20
2023-01-31T04:04:23.319Z,71.10
2023-01-31T04:06:52.173Z,71.10
2023-01-31T04:09:23.115Z,71.10
2023-01-31T04:11:51.311Z,71.30
2023-01-31T04:14:19.102Z,71.70
2023-01-31T04:16:46.305Z,71.80
2023-01-31T04:19:13.488Z,71.80
2023-01-31T04:21:40.707Z,71.70
2023-01-31T04:24:10.424Z,71.90
2023-01-31T04:26:38.058Z,72.10
2023-01-31T04:29:05.786Z,72.20
2023-01-31T04:31:33.160Z,72.40
2023-01-31T04:34:00.943Z,72.80
2023-01-31T04:36:28.176Z,73.00
2023-01-31T04:38:55.335Z,73.10
2023-01-31T04:41:23.845Z,73.00
2023-01-31T04:43:51.029Z,73.00
2023-01-31T04:46:18.957Z,73.10
2023-01-31T04:48:46.224Z,73.30
2023-01-31T04:51:13.548Z,73.20
2023-01-31T04:53:42.773Z,73.20
2023-01-31T04:56:10.247Z,73.30
2023-01-31T04:58:38.813Z,73.20
2023-01-31T05:01:06.431Z,73.10
2023-01-31T05:03:33.924Z,73.10
2023-01-31T05:06:01.121Z,73.30
2023-01-31T05:08:29.404Z,73.40
2023-01-31T05:11:00.772Z,73.40
2023-01-31T05:13:32.991Z,73.50
2023-01-31T05:16:01.670Z,73.60
2023-01-31T05:18:29.182Z,73.60
2023-01-31T05:20:56.365Z,73.60
2023-01-31T05:23:23.578Z,73.70
2023-01-31T05:25:50.980Z,73.60
2023-01-31T05:28:18.736Z,73.60
2023-01-31T05:30:46.294Z,73.70
2023-01-31T05:33:15.015Z,73.60
2023-01-31T05:35:42.487Z,73.80
2023-01-31T05:38:09.905Z,73.80
2023-01-31T05:40:37.244Z,74.10
2023-01-31T05:43:04.483Z,74.20
2023-01-31T05:45:32.664Z,74.40
2023-01-31T05:47:59.986Z,74.30
2023-01-31T05:50:28.720Z,74.10
2023-01-31T05:52:59.609Z,74.20
2023-01-31T05:55:27.721Z,74.20
2023-01-31T05:57:55.305Z,74.10
2023-01-31T06:00:23.736Z,74.10
2023-01-31T06:02:50.972Z,74.30
2023-01-31T06:05:19.052Z,74.20
2023-01-31T06:07:47.726Z,74.00
2023-01-31T06:10:15.479Z,74.20
2023-01-31T06:12:42.670Z,74.20
2023-01-31T06:15:10.799Z,74.40
2023-01-31T06:17:38.199Z,74.50
2023-01-31T06:20:06.612Z,74.50
2023-01-31T06:22:34.302Z,74.30
2023-01-31T06:25:02.900Z,74.60
2023-01-31T06:27:31.973Z,74.60
2023-01-31T06:29:59.420Z,74.40
2023-01-31T06:32:26.634Z,74.30
2023-01-31T06:34:53.849Z,74.40
2023-01-31T06:37:21.059Z,74.70
2023-01-31T06:39:48.333Z,74.70
2023-01-31T06:42:16.881Z,74.70
2023-01-31T06:44:44.125Z,74.80
2023-01-31T06:47:12.984Z,74.80
2023-01-31T06:49:40.389Z,74.50
2023-01-31T06:52:07.731Z,74.40
2023-01-31T06:54:34.904Z,74.40
2023-01-31T06:57:02.225Z,74.20
2023-01-31T06:59:30.793Z,74.40
2023-01-31T07:01:58.096Z,74.40
2023-01-31T07:04:25.600Z,74.30
2023-01-31T07:06:52.929Z,74.30
2023-01-31T07:09:20.135Z,74.20
2023-01-31T07:11:47.359Z,75.20
2023-01-31T07:14:14.704Z,76.50
2023-01-31T07:16:43.226Z,76.00
2023-01-31T07:19:10.385Z,75.80
2023-01-31T07:21:37.594Z,76.10
2023-01-31T07:24:05.626Z,75.60
2023-01-31T07:26:33.406Z,75.80
2023-01-31T07:29:00.816Z,75.80
2023-01-31T07:31:29.087Z,75.60
2023-01-31T07:33:57.586Z,75.60
2023-01-31T07:36:45.407Z,76.00
2023-01-31T07:39:13.515Z,76.30
2023-01-31T07:41:40.928Z,76.20
2023-01-31T07:44:10.601Z,76.20
2023-01-31T07:46:38.308Z,76.30
2023-01-31T07:49:09.278Z,76.30
2023-01-31T07:51:38.545Z,76.30
2023-01-31T07:54:06.148Z,76.20
2023-01-31T07:56:33.576Z,76.00
2023-01-31T07:59:00.878Z,76.20
2023-01-31T08:01:49.575Z,76.30
2023-01-31T08:04:22.091Z,76.30
2023-01-31T08:06:53.562Z,76.30
2023-01-31T08:09:21.305Z,76.00
2023-01-31T08:11:48.735Z,76.20
2023-01-31T08:15:40.182Z,76.40
2023-01-31T08:18:07.577Z,76.80
2023-01-31T08:20:37.612Z,76.50
2023-01-31T08:23:04.874Z,76.20
2023-01-31T08:25:32.372Z,76.20
2023-01-31T08:28:00.251Z,76.20
2023-01-31T08:30:27.847Z,76.40
2023-01-31T08:32:56.907Z,76.30
2023-01-31T08:35:26.211Z,76.30
2023-01-31T08:38:00.789Z,76.30
2023-01-31T08:40:34.628Z,76.50
2023-01-31T08:43:01.900Z,76.40
2023-01-31T08:45:30.508Z,76.50
2023-01-31T08:48:00.227Z,76.70
2023-01-31T08:50:31.960Z,76.70
2023-01-31T08:53:03.501Z,76.70
2023-01-31T08:55:32.615Z,76.50
2023-01-31T08:58:01.904Z,76.80
2023-01-31T09:00:30.218Z,76.70
2023-01-31T09:03:00.615Z,76.50
2023-01-31T09:05:30.241Z,76.50
2023-01-31T09:07:57.578Z,76.20
2023-01-31T09:10:24.981Z,76.40
2023-01-31T09:12:52.300Z,76.00
2023-01-31T09:15:20.054Z,76.10
2023-01-31T09:17:47.781Z,76.00
2023-01-31T09:20:16.605Z,76.20
2023-01-31T09:22:43.967Z,75.90
2023-01-31T09:25:11.727Z,75.60
2023-01-31T09:27:39.170Z,75.60
2023-01-31T09:30:09.537Z,75.70
2023-01-31T09:32:38.075Z,75.70
2023-01-31T09:35:06.157Z,75.70
2023-01-31T09:37:34.692Z,75.40
2023-01-31T09:40:01.930Z,75.00
2023-01-31T09:42:33.740Z,74.80
2023-01-31T09:45:04.267Z,75.00
2023-01-31T09:47:36.199Z,75.00
2023-01-31T09:50:08.775Z,74.90
2023-01-31T09:52:39.212Z,74.60
2023-01-31T09:55:13.776Z,74.60
2023-01-31T09:57:50.793Z,74.50
2023-01-31T10:00:25.943Z,74.40
2023-01-31T10:03:04.155Z,74.30
2023-01-31T10:05:39.700Z,74.00
2023-01-31T10:08:17.814Z,74.00
2023-01-31T10:10:48.129Z,73.90
2023-01-31T10:13:21.395Z,73.70
2023-01-31T10:15:53.008Z,74.00
2023-01-31T10:18:25.931Z,73.20
2023-01-31T10:20:58.061Z,73.40
2023-01-31T10:23:30.721Z,73.30
2023-01-31T10:26:00.617Z,73.00
2023-01-31T10:28:35.205Z,73.20
2023-01-31T10:31:10.376Z,73.10
2023-01-31T10:33:44.960Z,72.90
2023-01-31T10:36:18.784Z,72.50
2023-01-31T10:39:00.341Z,72.80
2023-01-31T10:41:38.019Z,72.70
2023-01-31T10:44:13.202Z,73.30
2023-01-31T10:46:40.508Z,73.90
2023-01-31T10:49:09.383Z,74.10
2023-01-31T10:51:55.373Z,74.30
2023-01-31T10:54:34.468Z,74.30
2023-01-31T10:57:01.733Z,74.50
2023-01-31T10:59:33.813Z,74.60
2023-01-31T11:02:02.272Z,74.50
2023-01-31T11:04:33.096Z,74.40
2023-01-31T11:07:02.404Z,74.40
2023-01-31T11:09:35.138Z,74.00
2023-01-31T11:12:05.391Z,73.80
2023-01-31T11:14:32.845Z,73.90
2023-01-31T11:17:04.973Z,73.80
2023-01-31T11:19:39.667Z,73.30
2023-01-31T11:22:07.972Z,73.60
2023-01-31T11:24:41.242Z,73.60
2023-01-31T11:27:24.510Z,73.30
2023-01-31T11:29:54.608Z,73.30
2023-01-31T11:32:23.926Z,73.30
2023-01-31T11:34:59.403Z,73.20
2023-01-31T11:37:29.306Z,73.20
2023-01-31T11:40:00.645Z,73.80
2023-01-31T11:42:28.553Z,74.10
2023-01-31T11:44:58.771Z,74.10
2023-01-31T11:47:38.066Z,74.20
2023-01-31T11:50:06.832Z,74.40
2023-01-31T11:52:35.336Z,74.40
2023-01-31T11:55:08.272Z,74.60
2023-01-31T11:57:38.199Z,74.30
2023-01-31T12:00:18.543Z,74.00
2023-01-31T12:02:50.234Z,73.90
2023-01-31T12:05:19.139Z,74.20
2023-01-31T12:07:50.039Z,73.90
2023-01-31T12:10:31.038Z,73.70
2023-01-31T12:13:16.441Z,74.10
2023-01-31T12:15:55.858Z,74.10
2023-01-31T12:18:45.581Z,74.20
2023-01-31T12:21:15.705Z,74.60
2023-01-31T12:24:00.792Z,74.80
2023-01-31T12:26:39.479Z,75.20
2023-01-31T12:29:25.535Z,75.40
2023-01-31T12:32:17.006Z,75.60
2023-01-31T12:35:08.747Z,75.50
2023-01-31T12:37:46.759Z,75.80
2023-01-31T12:40:33.516Z,75.80
2023-01-31T12:43:04.942Z,75.60
2023-01-31T12:45:49.473Z,75.70
2023-01-31T12:48:45.761Z,75.90
2023-01-31T12:51:24.718Z,76.50
2023-01-31T12:54:02.997Z,77.00
2023-01-31T12:56:45.915Z,77.30
2023-01-31T12:59:30.174Z,77.80
2023-01-31T13:02:02.445Z,78.10
2023-01-31T13:04:43.864Z,78.60
2023-01-31T13:07:19.129Z,79.00
2023-01-31T13:09:48.463Z,79.40
2023-01-31T13:12:19.883Z,79.50
2023-01-31T13:14:53.996Z,79.40
2023-01-31T13:17:26.014Z,79.70
2023-01-31T13:19:57.189Z,79.80
2023-01-31T13:22:30.162Z,80.10
2023-01-31T13:25:11.765Z,80.00
2023-01-31T13:27:43.389Z,80.50
2023-01-31T13:30:21.681Z,80.80
2023-01-31T13:32:51.268Z,80.80
2023-01-31T13:35:23.793Z,80.30
2023-01-31T13:37:55.676Z,80.70
2023-01-31T13:40:26.115Z,80.70
2023-01-31T13:42:55.196Z,80.90
2023-01-31T13:45:27.143Z,80.80
2023-01-31T13:48:00.644Z,80.90
2023-01-31T13:50:37.686Z,81.10
2023-01-31T13:53:07.209Z,81.10
2023-01-31T13:55:38.446Z,81.40
2023-01-31T13:58:07.786Z,81.50
2023-01-31T14:00:40.601Z,81.30
2023-01-31T14:03:10.626Z,81.70
2023-01-31T14:05:52.313Z,81.90
2023-01-31T14:08:56.317Z,81.90
2023-01-31T14:11:35.051Z,82.10
2023-01-31T14:14:37.149Z,82.50
2023-01-31T14:17:10.092Z,82.60
2023-01-31T14:20:04.380Z,82.50
2023-01-31T14:22:35.141Z,82.60
2023-01-31T14:25:05.419Z,82.60
2023-01-31T14:27:45.367Z,82.70
2023-01-31T14:30:27.034Z,82.90
2023-01-31T14:33:15.555Z,82.70
2023-01-31T14:36:00.413Z,82.90
2023-01-31T14:38:42.056Z,82.80
2023-01-31T14:41:16.799Z,83.00
2023-01-31T14:43:57.701Z,83.20
2023-01-31T14:46:40.921Z,83.00
2023-01-31T14:49:27.090Z,83.00
2023-01-31T14:52:37.027Z,83.20
2023-01-31T14:55:22.267Z,83.50
2023-01-31T14:57:52.981Z,83.80
2023-01-31T15:00:23.648Z,84.10
2023-01-31T15:02:55.293Z,84.30
2023-01-31T15:05:40.317Z,84.20
2023-01-31T15:08:34.963Z,83.90
2023-01-31T15:11:05.224Z,84.10
2023-01-31T15:13:35.643Z,84.30
2023-01-31T15:16:06.023Z,84.40
2023-01-31T15:18:34.250Z,84.40
2023-01-31T15:21:04.751Z,84.40
2023-01-31T15:23:34.453Z,84.40
2023-01-31T15:26:04.434Z,84.20
2023-01-31T15:28:36.680Z,84.20
2023-01-31T15:31:07.357Z,84.40
2023-01-31T15:33:41.312Z,84.40
2023-01-31T15:36:18.543Z,84.40
2023-01-31T15:38:51.694Z,84.40
2023-01-31T15:41:22.454Z,84.30
2023-01-31T15:43:51.834Z,84.20
2023-01-31T15:46:25.542Z,84.50
2023-01-31T15:48:53.274Z,84.60
2023-01-31T15:51:21.046Z,84.70
2023-01-31T15:53:49.196Z,84.90
2023-01-31T15:56:22.163Z,84.80
2023-01-31T15:58:51.509Z,84.90
2023-01-31T16:01:18.801Z,85.00
2023-01-31T16:03:52.184Z,84.90
2023-01-31T16:06:24.781Z,84.90
2023-01-31T16:08:53.778Z,84.70
2023-01-31T16:11:23.442Z,85.00
2023-01-31T16:13:50.908Z,84.70
2023-01-31T16:16:19.421Z,84.70
2023-01-31T16:18:50.742Z,84.70
2023-01-31T16:21:26.618Z,84.70
2023-01-31T16:24:02.183Z,84.70
2023-01-31T16:26:34.071Z,84.70
2023-01-31T16:29:07.861Z,84.70
2023-01-31T16:31:44.937Z,84.70
2023-01-31T16:34:26.227Z,84.70
2023-01-31T16:37:00.360Z,84.50
2023-01-31T16:39:36.664Z,84.70
2023-01-31T16:42:08.680Z,84.50
2023-01-31T16:44:40.240Z,84.40
2023-01-31T16:47:07.896Z,84.40
2023-01-31T16:49:37.124Z,84.50
2023-01-31T16:52:16.607Z,84.50
2023-01-31T16:54:48.712Z,84.40
2023-01-31T16:57:38.088Z,84.40
2023-01-31T17:00:27.688Z,84.00
2023-01-31T17:02:56.755Z,84.10
2023-01-31T17:05:28.990Z,84.00
2023-01-31T17:07:57.314Z,84.00
2023-01-31T17:10:27.169Z,84.10
2023-01-31T17:13:01.219Z,84.30
2023-01-31T17:15:28.440Z,84.10
2023-01-31T17:17:56.308Z,84.20
2023-01-31T17:20:24.260Z,84.40
2023-01-31T17:23:02.992Z,84.40
2023-01-31T17:25:33.238Z,84.50
2023-01-31T17:28:01.841Z,84.80
2023-01-31T17:30:30.537Z,84.90
2023-01-31T17:32:57.994Z,84.80
2023-01-31T17:35:29.311Z,84.80
2023-01-31T17:37:56.565Z,84.60
2023-01-31T17:40:24.089Z,84.40
2023-01-31T17:42:55.460Z,84.60
2023-01-31T17:45:24.626Z,84.60
2023-01-31T17:47:52.176Z,84.40
2023-01-31T17:50:21.952Z,84.40
2023-01-31T17:52:49.363Z,84.40
2023-01-31T17:55:18.726Z,84.30
2023-01-31T17:57:46.626Z,84.40
2023-01-31T18:00:15.927Z,84.20
2023-01-31T18:02:44.896Z,84.10
2023-01-31T18:05:14.317Z,84.10
2023-01-31T18:07:41.902Z,83.90
2023-01-31T18:10:10.707Z,83.80
2023-01-31T18:12:37.982Z,83.60
2023-01-31T18:15:06.122Z,83.80
2023-01-31T18:17:33.356Z,83.70
2023-01-31T18:20:02.112Z,83.50
2023-01-31T18:22:29.363Z,83.50
2023-01-31T18:24:56.570Z,83.50
2023-01-31T18:27:23.808Z,83.40
2023-01-31T18:29:51.031Z,83.30
2023-01-31T18:32:20.139Z,83.00
2023-01-31T18:34:47.460Z,82.70
2023-01-31T18:37:20.117Z,82.60
2023-01-31T18:39:48.444Z,82.50
2023-01-31T18:42:16.198Z,82.20
2023-01-31T18:44:44.915Z,82.00
2023-01-31T18:47:12.170Z,81.90
2023-01-31T18:49:39.409Z,81.70
2023-01-31T18:52:07.559Z,81.60
2023-01-31T18:54:37.457Z,81.40
2023-01-31T18:57:05.431Z,81.40
2023-01-31T18:59:33.485Z,81.20
2023-01-31T19:02:01.059Z,81.20
2023-01-31T19:04:28.343Z,81.40
2023-01-31T19:06:55.562Z,82.00
2023-01-31T19:09:23.044Z,81.70
2023-01-31T19:11:51.584Z,81.60
2023-01-31T19:14:19.045Z,81.10
2023-01-31T19:16:46.381Z,80.90
2023-01-31T19:19:13.630Z,80.50
2023-01-31T19:21:41.187Z,80.60
2023-01-31T19:24:11.650Z,79.70
2023-01-31T19:26:38.923Z,79.30
2023-01-31T19:29:09.724Z,79.40
2023-01-31T19:31:37.224Z,79.30
2023-01-31T19:34:06.631Z,78.30
2023-01-31T19:36:36.650Z,75.60
2023-01-31T19:39:05.990Z,75.80
2023-01-31T19:41:33.351Z,75.60
2023-01-31T19:44:01.576Z,76.50
2023-01-31T19:46:31.576Z,77.10
2023-01-31T19:48:59.600Z,77.60
2023-01-31T19:51:28.089Z,77.50
2023-01-31T19:53:58.868Z,77.00
2023-01-31T19:56:26.551Z,76.20
2023-01-31T19:58:53.851Z,76.30
2023-01-31T20:01:21.422Z,76.70
2023-01-31T20:03:50.204Z,77.00
2023-01-31T20:06:19.458Z,76.90
2023-01-31T20:08:49.341Z,77.10
2023-01-31T20:11:16.698Z,77.10
2023-01-31T20:13:44.074Z,77.10
2023-01-31T20:16:13.107Z,77.20
2023-01-31T20:18:41.199Z,77.50
2023-01-31T20:21:14.729Z,77.60
2023-01-31T20:23:42.017Z,77.90
2023-01-31T20:26:11.143Z,78.00
2023-01-31T20:28:38.921Z,78.20
2023-01-31T20:31:08.019Z,78.20
2023-01-31T20:33:35.770Z,78.30
2023-01-31T20:36:03.683Z,78.10
2023-01-31T20:38:32.462Z,78.20
2023-01-31T20:41:00.582Z,78.10
2023-01-31T20:43:28.173Z,78.00
2023-01-31T20:46:02.176Z,77.90
2023-01-31T20:48:29.556Z,77.80
2023-01-31T20:50:57.415Z,78.10
2023-01-31T20:53:28.557Z,77.60
2023-01-31T20:55:59.786Z,77.80
2023-01-31T20:58:28.550Z,77.70
2023-01-31T21:00:56.733Z,77.60
2023-01-31T21:03:24.501Z,77.50
2023-01-31T21:05:52.641Z,77.40
2023-01-31T21:08:24.370Z,77.50
2023-01-31T21:10:53.241Z,77.70
2023-01-31T21:13:22.969Z,77.70
2023-01-31T21:15:54.883Z,77.70
2023-01-31T21:18:24.835Z,77.70
2023-01-31T21:20:52.222Z,77.60
2023-01-31T21:23:19.650Z,77.60
2023-01-31T21:25:46.996Z,77.70
2023-01-31T21:28:14.396Z,77.70
2023-01-31T21:30:43.236Z,77.60
2023-01-31T21:33:10.616Z,77.30
2023-01-31T21:35:37.991Z,77.10
2023-01-31T21:38:05.298Z,76.80
2023-01-31T21:40:32.635Z,76.90
2023-01-31T21:42:59.994Z,76.90
2023-01-31T21:45:39.967Z,76.60
2023-01-31T21:48:28.967Z,76.60
2023-01-31T21:50:56.955Z,77.50
2023-01-31T21:53:24.830Z,77.70
2023-01-31T21:56:00.502Z,77.00
2023-01-31T21:58:27.798Z,76.60
2023-01-31T22:00:55.090Z,76.60
2023-01-31T22:03:23.680Z,76.70
2023-01-31T22:05:50.893Z,77.00
2023-01-31T22:08:18.165Z,77.00
2023-01-31T22:10:45.420Z,77.30
2023-01-31T22:13:12.678Z,77.20
2023-01-31T22:15:39.987Z,77.10
2023-01-31T22:18:07.276Z,77.40
2023-01-31T22:20:36.468Z,77.30
2023-01-31T22:23:03.820Z,77.40
2023-01-31T22:25:31.138Z,77.70
2023-01-31T22:27:58.503Z,77.80
2023-01-31T22:30:25.857Z,77.90
2023-01-31T22:32:53.133Z,78.30
2023-01-31T22:35:20.490Z,78.50
2023-01-31T22:37:49.145Z,78.60
2023-01-31T22:40:17.830Z,78.60
2023-01-31T22:42:45.271Z,78.90
2023-01-31T22:45:12.564Z,79.10
2023-01-31T22:47:39.832Z,78.80
2023-01-31T22:50:07.843Z,79.10
2023-01-31T22:52:35.140Z,79.20
2023-01-31T22:55:04.031Z,79.20
2023-01-31T22:57:31.361Z,79.30
2023-01-31T22:59:58.669Z,79.20
2023-01-31T23:02:25.984Z,79.30
2023-01-31T23:04:53.302Z,79.10
2023-01-31T23:07:20.585Z,79.10
2023-01-31T23:09:48.877Z,78.50
2023-01-31T23:12:17.698Z,78.60
2023-01-31T23:14:45.866Z,78.90
2023-01-31T23:17:31.941Z,78.80
2023-01-31T23:19:59.153Z,78.60
2023-01-31T23:22:26.370Z,78.90
2023-01-31T23:24:53.630Z,78.60
2023-01-31T23:27:22.164Z,78.50
2023-01-31T23:29:49.405Z,78.40
2023-01-31T23:32:16.609Z,78.20
2023-01-31T23:34:43.793Z,78.20
2023-01-31T23:37:11.275Z,77.80
2023-01-31T23:39:38.500Z,77.60
2023-01-31T23:42:05.750Z,77.60
2023-01-31T23:44:34.277Z,77.40
2023-01-31T23:47:01.502Z,77.10
2023-01-31T23:49:28.733Z,76.60
2023-01-31T23:51:55.944Z,76.50
2023-01-31T23:54:23.251Z,76.50
2023-01-31T23:56:50.446Z,76.40
2023-01-31T23:59:17.680Z,76.30
